sensor_id;sensor_type;location;lat;lon;timestamp;P1;durP1;ratioP1;P2;durP2;ratioP2
3177;SDS011;38141;42.666;23.344;2023-07-22T00:00:28;10.93;;;8.00;;
3177;SDS011;38141;42.666;23.344;2023-07-22T00:03:53;15.13;;;7.67;;
3177;SDS011;38141;42.666;23.344;2023-07-22T00:07:20;16.07;;;6.90;;
3177;SDS011;38141;42.666;23.344;2023-07-22T00:10:45;15.23;;;7.57;;
3177;SDS011;38141;42.666;23.344;2023-07-22T00:14:11;15.50;;;6.90;;
3177;SDS011;38141;42.666;23.344;2023-07-22T00:17:37;11.67;;;7.07;;
3177;SDS011;38141;42.666;23.344;2023-07-22T00:21:03;12.17;;;6.90;;
3177;SDS011;38141;42.666;23.344;2023-07-22T00:24:30;14.83;;;7.20;;
3177;SDS011;38141;42.666;23.344;2023-07-22T00:27:55;11.57;;;6.83;;
3177;SDS011;38141;42.666;23.344;2023-07-22T00:31:21;11.10;;;7.03;;
3177;SDS011;38141;42.666;23.344;2023-07-22T00:34:46;12.03;;;6.70;;
3177;SDS011;38141;42.666;23.344;2023-07-22T00:38:15;13.63;;;7.10;;
3177;SDS011;38141;42.666;23.344;2023-07-22T00:41:42;14.23;;;8.03;;
3177;SDS011;38141;42.666;23.344;2023-07-22T00:45:08;13.00;;;7.30;;
3177;SDS011;38141;42.666;23.344;2023-07-22T00:48:33;19.10;;;8.23;;
3177;SDS011;38141;42.666;23.344;2023-07-22T00:52:00;13.70;;;8.30;;
3177;SDS011;38141;42.666;23.344;2023-07-22T00:55:26;10.67;;;7.27;;
3177;SDS011;38141;42.666;23.344;2023-07-22T00:58:54;16.70;;;7.33;;
3177;SDS011;38141;42.666;23.344;2023-07-22T01:02:20;10.93;;;7.47;;
3177;SDS011;38141;42.666;23.344;2023-07-22T01:05:46;12.77;;;7.70;;
3177;SDS011;38141;42.666;23.344;2023-07-22T01:09:13;11.70;;;7.70;;
3177;SDS011;38141;42.666;23.344;2023-07-22T01:12:39;15.53;;;7.93;;
3177;SDS011;38141;42.666;23.344;2023-07-22T01:16:06;13.20;;;7.77;;
3177;SDS011;38141;42.666;23.344;2023-07-22T01:19:33;16.13;;;8.10;;
3177;SDS011;38141;42.666;23.344;2023-07-22T01:23:00;13.03;;;7.97;;
3177;SDS011;38141;42.666;23.344;2023-07-22T01:26:26;17.70;;;7.70;;
3177;SDS011;38141;42.666;23.344;2023-07-22T01:29:52;15.40;;;8.50;;
3177;SDS011;38141;42.666;23.344;2023-07-22T01:33:19;13.20;;;7.63;;
3177;SDS011;38141;42.666;23.344;2023-07-22T01:36:44;13.03;;;7.80;;
3177;SDS011;38141;42.666;23.344;2023-07-22T01:40:12;16.63;;;7.60;;
3177;SDS011;38141;42.666;23.344;2023-07-22T01:43:37;16.60;;;8.20;;
3177;SDS011;38141;42.666;23.344;2023-07-22T01:47:02;10.60;;;6.90;;
3177;SDS011;38141;42.666;23.344;2023-07-22T01:50:28;12.13;;;8.03;;
3177;SDS011;38141;42.666;23.344;2023-07-22T01:53:53;14.90;;;7.57;;
3177;SDS011;38141;42.666;23.344;2023-07-22T01:57:20;8.43;;;7.07;;
3177;SDS011;38141;42.666;23.344;2023-07-22T02:00:48;10.37;;;7.10;;
3177;SDS011;38141;42.666;23.344;2023-07-22T02:04:14;11.50;;;6.53;;
3177;SDS011;38141;42.666;23.344;2023-07-22T02:07:39;8.73;;;6.37;;
3177;SDS011;38141;42.666;23.344;2023-07-22T02:11:05;10.97;;;7.00;;
3177;SDS011;38141;42.666;23.344;2023-07-22T02:14:33;10.70;;;7.00;;
3177;SDS011;38141;42.666;23.344;2023-07-22T02:17:59;12.00;;;7.80;;
3177;SDS011;38141;42.666;23.344;2023-07-22T02:21:25;12.57;;;7.10;;
3177;SDS011;38141;42.666;23.344;2023-07-22T02:24:50;10.87;;;7.73;;
3177;SDS011;38141;42.666;23.344;2023-07-22T02:28:15;8.53;;;7.17;;
3177;SDS011;38141;42.666;23.344;2023-07-22T02:31:42;11.87;;;7.00;;
3177;SDS011;38141;42.666;23.344;2023-07-22T02:35:08;10.20;;;7.33;;
3177;SDS011;38141;42.666;23.344;2023-07-22T02:38:33;11.10;;;7.27;;
3177;SDS011;38141;42.666;23.344;2023-07-22T02:41:58;9.97;;;6.70;;
3177;SDS011;38141;42.666;23.344;2023-07-22T02:45:24;11.73;;;7.43;;
3177;SDS011;38141;42.666;23.344;2023-07-22T02:48:51;14.20;;;8.10;;
3177;SDS011;38141;42.666;23.344;2023-07-22T02:52:16;11.80;;;7.53;;
3177;SDS011;38141;42.666;23.344;2023-07-22T02:55:42;10.53;;;6.90;;
3177;SDS011;38141;42.666;23.344;2023-07-22T02:59:07;11.73;;;7.30;;
3177;SDS011;38141;42.666;23.344;2023-07-22T03:02:33;9.83;;;7.40;;
3177;SDS011;38141;42.666;23.344;2023-07-22T03:06:00;14.73;;;7.80;;
3177;SDS011;38141;42.666;23.344;2023-07-22T03:09:26;8.83;;;6.70;;
3177;SDS011;38141;42.666;23.344;2023-07-22T03:12:54;11.37;;;7.00;;
3177;SDS011;38141;42.666;23.344;2023-07-22T03:16:20;13.23;;;8.00;;
3177;SDS011;38141;42.666;23.344;2023-07-22T03:19:45;10.53;;;7.30;;
3177;SDS011;38141;42.666;23.344;2023-07-22T03:23:12;11.97;;;7.73;;
3177;SDS011;38141;42.666;23.344;2023-07-22T03:26:37;10.37;;;8.20;;
3177;SDS011;38141;42.666;23.344;2023-07-22T03:30:03;12.57;;;7.90;;
3177;SDS011;38141;42.666;23.344;2023-07-22T03:33:29;13.60;;;7.70;;
3177;SDS011;38141;42.666;23.344;2023-07-22T03:36:54;16.27;;;8.10;;
3177;SDS011;38141;42.666;23.344;2023-07-22T03:40:21;12.67;;;7.93;;
3177;SDS011;38141;42.666;23.344;2023-07-22T03:43:46;11.40;;;8.00;;
3177;SDS011;38141;42.666;23.344;2023-07-22T03:47:12;14.20;;;8.20;;
3177;SDS011;38141;42.666;23.344;2023-07-22T03:50:37;12.63;;;8.17;;
3177;SDS011;38141;42.666;23.344;2023-07-22T03:54:02;14.27;;;8.60;;
3177;SDS011;38141;42.666;23.344;2023-07-22T03:57:29;13.50;;;8.23;;
3177;SDS011;38141;42.666;23.344;2023-07-22T04:00:54;15.67;;;9.03;;
3177;SDS011;38141;42.666;23.344;2023-07-22T04:04:19;10.93;;;7.90;;
3177;SDS011;38141;42.666;23.344;2023-07-22T04:07:45;11.40;;;7.60;;
3177;SDS011;38141;42.666;23.344;2023-07-22T04:11:10;13.90;;;8.30;;
3177;SDS011;38141;42.666;23.344;2023-07-22T04:14:37;17.90;;;8.87;;
3177;SDS011;38141;42.666;23.344;2023-07-22T04:18:03;15.33;;;8.17;;
3177;SDS011;38141;42.666;23.344;2023-07-22T04:21:28;13.10;;;8.37;;
3177;SDS011;38141;42.666;23.344;2023-07-22T04:24:54;13.07;;;8.87;;
3177;SDS011;38141;42.666;23.344;2023-07-22T04:28:19;18.00;;;8.67;;
3177;SDS011;38141;42.666;23.344;2023-07-22T04:31:46;13.37;;;8.70;;
3177;SDS011;38141;42.666;23.344;2023-07-22T04:35:12;13.10;;;9.10;;
3177;SDS011;38141;42.666;23.344;2023-07-22T04:38:37;13.83;;;9.03;;
3177;SDS011;38141;42.666;23.344;2023-07-22T04:42:03;12.73;;;8.03;;
3177;SDS011;38141;42.666;23.344;2023-07-22T04:45:28;15.43;;;8.87;;
3177;SDS011;38141;42.666;23.344;2023-07-22T04:48:55;14.53;;;8.90;;
3177;SDS011;38141;42.666;23.344;2023-07-22T04:52:20;16.87;;;9.40;;
3177;SDS011;38141;42.666;23.344;2023-07-22T04:55:47;18.30;;;9.07;;
3177;SDS011;38141;42.666;23.344;2023-07-22T04:59:12;17.77;;;9.83;;
3177;SDS011;38141;42.666;23.344;2023-07-22T05:02:40;13.00;;;9.87;;
3177;SDS011;38141;42.666;23.344;2023-07-22T05:06:07;14.88;;;9.52;;
3177;SDS011;38141;42.666;23.344;2023-07-22T05:09:32;14.70;;;9.05;;
3177;SDS011;38141;42.666;23.344;2023-07-22T05:12:57;13.10;;;9.50;;
3177;SDS011;38141;42.666;23.344;2023-07-22T05:16:23;17.38;;;10.98;;
3177;SDS011;38141;42.666;23.344;2023-07-22T05:19:48;17.55;;;10.77;;
3177;SDS011;38141;42.666;23.344;2023-07-22T05:23:15;15.50;;;10.48;;
3177;SDS011;38141;42.666;23.344;2023-07-22T05:26:40;17.65;;;10.13;;
3177;SDS011;38141;42.666;23.344;2023-07-22T05:30:06;15.88;;;9.77;;
3177;SDS011;38141;42.666;23.344;2023-07-22T05:33:31;14.93;;;9.77;;
3177;SDS011;38141;42.666;23.344;2023-07-22T05:36:56;14.98;;;9.55;;
3177;SDS011;38141;42.666;23.344;2023-07-22T05:40:23;12.90;;;9.38;;
3177;SDS011;38141;42.666;23.344;2023-07-22T05:43:48;13.60;;;9.75;;
3177;SDS011;38141;42.666;23.344;2023-07-22T05:47:14;12.63;;;9.60;;
3177;SDS011;38141;42.666;23.344;2023-07-22T05:50:39;16.15;;;10.75;;
3177;SDS011;38141;42.666;23.344;2023-07-22T05:54:04;17.33;;;9.93;;
3177;SDS011;38141;42.666;23.344;2023-07-22T05:57:32;16.73;;;10.40;;
3177;SDS011;38141;42.666;23.344;2023-07-22T06:00:57;18.63;;;10.68;;
3177;SDS011;38141;42.666;23.344;2023-07-22T06:04:22;12.13;;;9.43;;
3177;SDS011;38141;42.666;23.344;2023-07-22T06:07:48;13.05;;;9.35;;
3177;SDS011;38141;42.666;23.344;2023-07-22T06:11:13;13.55;;;9.30;;
3177;SDS011;38141;42.666;23.344;2023-07-22T06:14:39;18.08;;;9.40;;
3177;SDS011;38141;42.666;23.344;2023-07-22T06:18:05;17.48;;;9.18;;
3177;SDS011;38141;42.666;23.344;2023-07-22T06:21:30;14.20;;;9.57;;
3177;SDS011;38141;42.666;23.344;2023-07-22T06:24:55;13.10;;;9.45;;
3177;SDS011;38141;42.666;23.344;2023-07-22T06:28:20;15.02;;;8.23;;
3177;SDS011;38141;42.666;23.344;2023-07-22T06:31:47;9.98;;;7.57;;
3177;SDS011;38141;42.666;23.344;2023-07-22T06:35:12;11.05;;;7.85;;
3177;SDS011;38141;42.666;23.344;2023-07-22T06:38:38;14.27;;;7.53;;
3177;SDS011;38141;42.666;23.344;2023-07-22T06:42:03;9.90;;;6.95;;
3177;SDS011;38141;42.666;23.344;2023-07-22T06:45:29;9.02;;;7.00;;
3177;SDS011;38141;42.666;23.344;2023-07-22T06:48:55;11.73;;;7.25;;
3177;SDS011;38141;42.666;23.344;2023-07-22T06:52:20;10.50;;;6.50;;
3177;SDS011;38141;42.666;23.344;2023-07-22T06:55:49;9.48;;;6.50;;
3177;SDS011;38141;42.666;23.344;2023-07-22T06:59:14;9.40;;;6.30;;
3177;SDS011;38141;42.666;23.344;2023-07-22T07:02:40;8.90;;;6.53;;
3177;SDS011;38141;42.666;23.344;2023-07-22T07:06:07;13.45;;;6.63;;
3177;SDS011;38141;42.666;23.344;2023-07-22T07:09:32;11.32;;;7.07;;
3177;SDS011;38141;42.666;23.344;2023-07-22T07:13:02;11.27;;;6.07;;
3177;SDS011;38141;42.666;23.344;2023-07-22T07:16:29;11.90;;;6.65;;
3177;SDS011;38141;42.666;23.344;2023-07-22T07:19:54;11.27;;;6.65;;
3177;SDS011;38141;42.666;23.344;2023-07-22T07:23:21;8.52;;;6.63;;
3177;SDS011;38141;42.666;23.344;2023-07-22T07:26:46;11.23;;;7.03;;
3177;SDS011;38141;42.666;23.344;2023-07-22T07:30:12;9.75;;;6.65;;
3177;SDS011;38141;42.666;23.344;2023-07-22T07:33:37;12.82;;;6.70;;
3177;SDS011;38141;42.666;23.344;2023-07-22T07:37:02;9.38;;;7.35;;
3177;SDS011;38141;42.666;23.344;2023-07-22T07:40:29;15.70;;;6.32;;
3177;SDS011;38141;42.666;23.344;2023-07-22T07:43:55;8.30;;;7.00;;
3177;SDS011;38141;42.666;23.344;2023-07-22T07:47:20;10.57;;;8.13;;
3177;SDS011;38141;42.666;23.344;2023-07-22T07:50:45;11.32;;;7.60;;
3177;SDS011;38141;42.666;23.344;2023-07-22T07:54:11;12.50;;;7.70;;
3177;SDS011;38141;42.666;23.344;2023-07-22T07:57:37;13.52;;;8.30;;
3177;SDS011;38141;42.666;23.344;2023-07-22T08:01:03;10.18;;;7.97;;
3177;SDS011;38141;42.666;23.344;2023-07-22T08:04:34;25.67;;;9.13;;
3177;SDS011;38141;42.666;23.344;2023-07-22T08:07:59;12.35;;;7.90;;
3177;SDS011;38141;42.666;23.344;2023-07-22T08:11:24;12.85;;;8.60;;
3177;SDS011;38141;42.666;23.344;2023-07-22T08:14:51;11.73;;;8.52;;
3177;SDS011;38141;42.666;23.344;2023-07-22T08:18:34;12.63;;;8.38;;
3177;SDS011;38141;42.666;23.344;2023-07-22T08:22:00;12.68;;;10.05;;
3177;SDS011;38141;42.666;23.344;2023-07-22T08:25:25;16.70;;;8.80;;
3177;SDS011;38141;42.666;23.344;2023-07-22T08:28:51;14.50;;;8.48;;
3177;SDS011;38141;42.666;23.344;2023-07-22T08:32:17;12.40;;;9.05;;
3177;SDS011;38141;42.666;23.344;2023-07-22T08:35:43;12.23;;;9.95;;
3177;SDS011;38141;42.666;23.344;2023-07-22T08:39:09;16.45;;;9.20;;
3177;SDS011;38141;42.666;23.344;2023-07-22T08:42:35;11.82;;;9.00;;
3177;SDS011;38141;42.666;23.344;2023-07-22T08:46:02;13.05;;;9.10;;
3177;SDS011;38141;42.666;23.344;2023-07-22T08:49:35;14.45;;;10.02;;
3177;SDS011;38141;42.666;23.344;2023-07-22T08:53:03;18.40;;;9.40;;
3177;SDS011;38141;42.666;23.344;2023-07-22T08:56:29;11.63;;;9.68;;
3177;SDS011;38141;42.666;23.344;2023-07-22T08:59:56;14.30;;;9.23;;
3177;SDS011;38141;42.666;23.344;2023-07-22T09:03:24;13.30;;;9.32;;
3177;SDS011;38141;42.666;23.344;2023-07-22T09:06:50;12.07;;;8.63;;
3177;SDS011;38141;42.666;23.344;2023-07-22T09:10:16;12.10;;;8.85;;
3177;SDS011;38141;42.666;23.344;2023-07-22T09:13:43;15.68;;;9.05;;
3177;SDS011;38141;42.666;23.344;2023-07-22T09:17:10;11.43;;;8.57;;
3177;SDS011;38141;42.666;23.344;2023-07-22T09:20:37;17.63;;;9.55;;
3177;SDS011;38141;42.666;23.344;2023-07-22T09:24:02;12.68;;;7.97;;
3177;SDS011;38141;42.666;23.344;2023-07-22T09:27:43;12.35;;;8.07;;
3177;SDS011;38141;42.666;23.344;2023-07-22T09:31:16;10.57;;;8.52;;
3177;SDS011;38141;42.666;23.344;2023-07-22T09:34:53;12.38;;;8.52;;
3177;SDS011;38141;42.666;23.344;2023-07-22T09:38:24;11.27;;;8.18;;
3177;SDS011;38141;42.666;23.344;2023-07-22T09:41:50;12.48;;;7.97;;
3177;SDS011;38141;42.666;23.344;2023-07-22T09:45:16;12.57;;;7.90;;
3177;SDS011;38141;42.666;23.344;2023-07-22T09:48:42;14.15;;;7.60;;
3177;SDS011;38141;42.666;23.344;2023-07-22T09:52:10;17.42;;;8.73;;
3177;SDS011;38141;42.666;23.344;2023-07-22T09:55:41;10.85;;;7.85;;
3177;SDS011;38141;42.666;23.344;2023-07-22T09:59:10;12.73;;;7.30;;
3177;SDS011;38141;42.666;23.344;2023-07-22T10:02:37;9.77;;;6.85;;
3177;SDS011;38141;42.666;23.344;2023-07-22T10:06:05;12.45;;;7.35;;
3177;SDS011;38141;42.666;23.344;2023-07-22T10:09:33;12.60;;;7.20;;
3177;SDS011;38141;42.666;23.344;2023-07-22T10:13:02;10.50;;;7.10;;
3177;SDS011;38141;42.666;23.344;2023-07-22T10:16:27;9.10;;;6.80;;
3177;SDS011;38141;42.666;23.344;2023-07-22T10:19:54;9.80;;;6.93;;
3177;SDS011;38141;42.666;23.344;2023-07-22T10:23:21;11.93;;;7.35;;
3177;SDS011;38141;42.666;23.344;2023-07-22T10:26:49;15.50;;;7.57;;
3177;SDS011;38141;42.666;23.344;2023-07-22T10:30:16;18.85;;;7.85;;
3177;SDS011;38141;42.666;23.344;2023-07-22T10:33:44;13.23;;;7.97;;
3177;SDS011;38141;42.666;23.344;2023-07-22T10:37:09;16.73;;;8.02;;
3177;SDS011;38141;42.666;23.344;2023-07-22T10:40:44;13.77;;;7.28;;
3177;SDS011;38141;42.666;23.344;2023-07-22T10:44:14;19.02;;;7.78;;
3177;SDS011;38141;42.666;23.344;2023-07-22T10:47:55;16.23;;;7.75;;
3177;SDS011;38141;42.666;23.344;2023-07-22T10:51:35;18.02;;;6.78;;
3177;SDS011;38141;42.666;23.344;2023-07-22T10:55:15;19.35;;;6.28;;
3177;SDS011;38141;42.666;23.344;2023-07-22T10:58:55;19.08;;;6.70;;
3177;SDS011;38141;42.666;23.344;2023-07-22T11:02:23;13.68;;;5.78;;
3177;SDS011;38141;42.666;23.344;2023-07-22T11:05:49;19.02;;;6.50;;
3177;SDS011;38141;42.666;23.344;2023-07-22T11:09:34;17.33;;;7.63;;
3177;SDS011;38141;42.666;23.344;2023-07-22T11:12:59;16.63;;;6.38;;
3177;SDS011;38141;42.666;23.344;2023-07-22T11:16:41;20.95;;;6.20;;
3177;SDS011;38141;42.666;23.344;2023-07-22T11:20:08;19.63;;;5.80;;
3177;SDS011;38141;42.666;23.344;2023-07-22T11:23:34;13.65;;;5.90;;
3177;SDS011;38141;42.666;23.344;2023-07-22T11:27:01;16.40;;;6.78;;
3177;SDS011;38141;42.666;23.344;2023-07-22T11:30:27;17.00;;;6.13;;
3177;SDS011;38141;42.666;23.344;2023-07-22T11:33:58;17.95;;;5.80;;
3177;SDS011;38141;42.666;23.344;2023-07-22T11:37:23;26.13;;;8.00;;
3177;SDS011;38141;42.666;23.344;2023-07-22T11:40:50;14.27;;;5.90;;
3177;SDS011;38141;42.666;23.344;2023-07-22T11:44:16;19.33;;;5.70;;
3177;SDS011;38141;42.666;23.344;2023-07-22T11:47:42;19.63;;;6.03;;
3177;SDS011;38141;42.666;23.344;2023-07-22T11:51:17;20.17;;;6.30;;
3177;SDS011;38141;42.666;23.344;2023-07-22T11:54:44;25.08;;;6.22;;
3177;SDS011;38141;42.666;23.344;2023-07-22T11:58:12;19.85;;;6.53;;
3177;SDS011;38141;42.666;23.344;2023-07-22T12:01:38;18.27;;;6.57;;
3177;SDS011;38141;42.666;23.344;2023-07-22T12:05:03;14.30;;;5.75;;
3177;SDS011;38141;42.666;23.344;2023-07-22T12:08:31;15.75;;;6.03;;
3177;SDS011;38141;42.666;23.344;2023-07-22T12:11:56;20.30;;;6.38;;
3177;SDS011;38141;42.666;23.344;2023-07-22T12:15:26;16.30;;;6.50;;
3177;SDS011;38141;42.666;23.344;2023-07-22T12:18:54;17.83;;;6.05;;
3177;SDS011;38141;42.666;23.344;2023-07-22T12:22:21;17.05;;;6.10;;
3177;SDS011;38141;42.666;23.344;2023-07-22T12:25:49;17.30;;;6.07;;
3177;SDS011;38141;42.666;23.344;2023-07-22T12:29:14;14.63;;;6.60;;
3177;SDS011;38141;42.666;23.344;2023-07-22T12:32:40;19.38;;;5.88;;
3177;SDS011;38141;42.666;23.344;2023-07-22T12:36:05;20.52;;;6.30;;
3177;SDS011;38141;42.666;23.344;2023-07-22T12:39:31;15.70;;;6.57;;
3177;SDS011;38141;42.666;23.344;2023-07-22T12:43:00;16.70;;;6.35;;
3177;SDS011;38141;42.666;23.344;2023-07-22T12:46:36;19.13;;;6.57;;
3177;SDS011;38141;42.666;23.344;2023-07-22T12:50:02;20.50;;;6.80;;
3177;SDS011;38141;42.666;23.344;2023-07-22T12:53:28;20.27;;;6.75;;
3177;SDS011;38141;42.666;23.344;2023-07-22T12:56:53;18.60;;;6.28;;
3177;SDS011;38141;42.666;23.344;2023-07-22T13:00:24;14.35;;;6.95;;
3177;SDS011;38141;42.666;23.344;2023-07-22T13:03:51;19.30;;;6.65;;
3177;SDS011;38141;42.666;23.344;2023-07-22T13:07:17;29.67;;;7.60;;
3177;SDS011;38141;42.666;23.344;2023-07-22T13:10:42;21.90;;;7.03;;
3177;SDS011;38141;42.666;23.344;2023-07-22T13:14:13;17.40;;;8.05;;
3177;SDS011;38141;42.666;23.344;2023-07-22T13:21:33;18.83;;;6.45;;
3177;SDS011;38141;42.666;23.344;2023-07-22T13:25:06;26.23;;;6.65;;
3177;SDS011;38141;42.666;23.344;2023-07-22T13:28:34;24.30;;;6.60;;
3177;SDS011;38141;42.666;23.344;2023-07-22T13:32:09;19.48;;;6.00;;
3177;SDS011;38141;42.666;23.344;2023-07-22T13:36:04;19.48;;;7.30;;
3177;SDS011;38141;42.666;23.344;2023-07-22T13:39:31;25.80;;;6.95;;
3177;SDS011;38141;42.666;23.344;2023-07-22T13:42:56;15.15;;;5.82;;
3177;SDS011;38141;42.666;23.344;2023-07-22T13:46:21;16.30;;;6.30;;
3177;SDS011;38141;42.666;23.344;2023-07-22T13:49:49;18.40;;;6.00;;
3177;SDS011;38141;42.666;23.344;2023-07-22T13:53:15;22.58;;;6.40;;
3177;SDS011;38141;42.666;23.344;2023-07-22T13:56:41;21.33;;;6.45;;
3177;SDS011;38141;42.666;23.344;2023-07-22T14:00:09;18.58;;;6.20;;
3177;SDS011;38141;42.666;23.344;2023-07-22T14:03:34;23.27;;;6.25;;
3177;SDS011;38141;42.666;23.344;2023-07-22T14:06:59;16.77;;;6.10;;
3177;SDS011;38141;42.666;23.344;2023-07-22T14:10:27;20.42;;;6.45;;
3177;SDS011;38141;42.666;23.344;2023-07-22T14:13:53;22.75;;;7.13;;
3177;SDS011;38141;42.666;23.344;2023-07-22T14:17:18;18.20;;;6.07;;
3177;SDS011;38141;42.666;23.344;2023-07-22T14:20:44;23.67;;;6.43;;
3177;SDS011;38141;42.666;23.344;2023-07-22T14:24:09;19.92;;;6.72;;
3177;SDS011;38141;42.666;23.344;2023-07-22T14:27:37;15.52;;;5.90;;
3177;SDS011;38141;42.666;23.344;2023-07-22T14:31:03;17.23;;;6.10;;
3177;SDS011;38141;42.666;23.344;2023-07-22T14:34:28;19.42;;;5.82;;
3177;SDS011;38141;42.666;23.344;2023-07-22T14:37:53;14.52;;;6.00;;
3177;SDS011;38141;42.666;23.344;2023-07-22T14:41:19;26.15;;;6.28;;
3177;SDS011;38141;42.666;23.344;2023-07-22T14:44:45;20.58;;;6.45;;
3177;SDS011;38141;42.666;23.344;2023-07-22T14:48:11;24.45;;;6.07;;
3177;SDS011;38141;42.666;23.344;2023-07-22T14:51:41;25.30;;;7.32;;
3177;SDS011;38141;42.666;23.344;2023-07-22T14:55:07;24.77;;;6.13;;
3177;SDS011;38141;42.666;23.344;2023-07-22T14:58:34;21.80;;;6.13;;
3177;SDS011;38141;42.666;23.344;2023-07-22T15:02:01;23.83;;;7.00;;
3177;SDS011;38141;42.666;23.344;2023-07-22T15:05:31;27.58;;;6.70;;
3177;SDS011;38141;42.666;23.344;2023-07-22T15:08:57;12.98;;;5.15;;
3177;SDS011;38141;42.666;23.344;2023-07-22T15:12:27;15.77;;;5.72;;
3177;SDS011;38141;42.666;23.344;2023-07-22T15:15:53;17.60;;;6.28;;
3177;SDS011;38141;42.666;23.344;2023-07-22T15:19:20;21.15;;;6.55;;
3177;SDS011;38141;42.666;23.344;2023-07-22T15:22:46;21.20;;;5.95;;
3177;SDS011;38141;42.666;23.344;2023-07-22T15:26:11;18.88;;;6.03;;
3177;SDS011;38141;42.666;23.344;2023-07-22T15:29:36;17.42;;;5.35;;
3177;SDS011;38141;42.666;23.344;2023-07-22T15:33:02;20.00;;;5.88;;
3177;SDS011;38141;42.666;23.344;2023-07-22T15:36:28;17.17;;;6.03;;
3177;SDS011;38141;42.666;23.344;2023-07-22T15:39:54;22.38;;;6.20;;
3177;SDS011;38141;42.666;23.344;2023-07-22T15:43:19;23.63;;;6.45;;
3177;SDS011;38141;42.666;23.344;2023-07-22T15:46:49;13.10;;;5.85;;
3177;SDS011;38141;42.666;23.344;2023-07-22T15:50:14;24.55;;;6.63;;
3177;SDS011;38141;42.666;23.344;2023-07-22T15:53:41;17.88;;;6.30;;
3177;SDS011;38141;42.666;23.344;2023-07-22T15:57:06;20.08;;;6.60;;
3177;SDS011;38141;42.666;23.344;2023-07-22T16:00:34;24.30;;;6.28;;
3177;SDS011;38141;42.666;23.344;2023-07-22T16:04:00;24.90;;;6.80;;
3177;SDS011;38141;42.666;23.344;2023-07-22T16:07:25;23.38;;;6.70;;
3177;SDS011;38141;42.666;23.344;2023-07-22T16:10:52;20.55;;;6.95;;
3177;SDS011;38141;42.666;23.344;2023-07-22T16:14:19;19.55;;;6.60;;
3177;SDS011;38141;42.666;23.344;2023-07-22T16:17:44;26.52;;;6.90;;
3177;SDS011;38141;42.666;23.344;2023-07-22T16:21:12;21.35;;;6.50;;
3177;SDS011;38141;42.666;23.344;2023-07-22T16:24:37;29.08;;;8.05;;
3177;SDS011;38141;42.666;23.344;2023-07-22T16:28:04;22.00;;;5.47;;
3177;SDS011;38141;42.666;23.344;2023-07-22T16:31:32;13.65;;;5.40;;
3177;SDS011;38141;42.666;23.344;2023-07-22T16:34:57;32.70;;;7.18;;
3177;SDS011;38141;42.666;23.344;2023-07-22T16:38:23;21.23;;;7.10;;
3177;SDS011;38141;42.666;23.344;2023-07-22T16:41:50;24.60;;;7.47;;
3177;SDS011;38141;42.666;23.344;2023-07-22T16:45:16;21.38;;;7.30;;
3177;SDS011;38141;42.666;23.344;2023-07-22T16:48:45;22.75;;;6.85;;
3177;SDS011;38141;42.666;23.344;2023-07-22T16:52:10;15.35;;;6.07;;
3177;SDS011;38141;42.666;23.344;2023-07-22T16:55:36;20.08;;;5.82;;
3177;SDS011;38141;42.666;23.344;2023-07-22T16:59:01;12.40;;;5.20;;
3177;SDS011;38141;42.666;23.344;2023-07-22T17:02:28;15.75;;;5.78;;
3177;SDS011;38141;42.666;23.344;2023-07-22T17:05:53;16.33;;;6.30;;
3177;SDS011;38141;42.666;23.344;2023-07-22T17:09:18;11.35;;;5.88;;
3177;SDS011;38141;42.666;23.344;2023-07-22T17:12:44;11.07;;;5.50;;
3177;SDS011;38141;42.666;23.344;2023-07-22T17:16:09;14.75;;;6.00;;
3177;SDS011;38141;42.666;23.344;2023-07-22T17:19:36;17.42;;;5.93;;
3177;SDS011;38141;42.666;23.344;2023-07-22T17:23:01;18.05;;;5.95;;
3177;SDS011;38141;42.666;23.344;2023-07-22T17:26:26;17.38;;;5.30;;
3177;SDS011;38141;42.666;23.344;2023-07-22T17:29:52;16.17;;;5.68;;
3177;SDS011;38141;42.666;23.344;2023-07-22T17:33:17;13.13;;;5.60;;
3177;SDS011;38141;42.666;23.344;2023-07-22T17:36:44;14.73;;;5.85;;
3177;SDS011;38141;42.666;23.344;2023-07-22T17:40:10;15.52;;;5.90;;
3177;SDS011;38141;42.666;23.344;2023-07-22T17:43:35;15.27;;;6.20;;
3177;SDS011;38141;42.666;23.344;2023-07-22T17:47:00;13.93;;;5.95;;
3177;SDS011;38141;42.666;23.344;2023-07-22T17:50:26;13.50;;;7.90;;
3177;SDS011;38141;42.666;23.344;2023-07-22T17:53:53;15.60;;;8.05;;
3177;SDS011;38141;42.666;23.344;2023-07-22T17:57:18;13.32;;;6.78;;
3177;SDS011;38141;42.666;23.344;2023-07-22T18:00:43;18.58;;;6.25;;
3177;SDS011;38141;42.666;23.344;2023-07-22T18:04:08;16.50;;;5.85;;
3177;SDS011;38141;42.666;23.344;2023-07-22T18:07:34;16.73;;;6.68;;
3177;SDS011;38141;42.666;23.344;2023-07-22T18:11:01;11.60;;;6.00;;
3177;SDS011;38141;42.666;23.344;2023-07-22T18:14:27;21.15;;;5.95;;
3177;SDS011;38141;42.666;23.344;2023-07-22T18:17:52;15.57;;;5.80;;
3177;SDS011;38141;42.666;23.344;2023-07-22T18:21:17;17.80;;;6.80;;
3177;SDS011;38141;42.666;23.344;2023-07-22T18:24:43;19.20;;;5.95;;
3177;SDS011;38141;42.666;23.344;2023-07-22T18:28:10;15.90;;;6.78;;
3177;SDS011;38141;42.666;23.344;2023-07-22T18:31:35;17.17;;;6.05;;
3177;SDS011;38141;42.666;23.344;2023-07-22T18:35:01;13.18;;;6.35;;
3177;SDS011;38141;42.666;23.344;2023-07-22T18:38:28;13.90;;;6.40;;
3177;SDS011;38141;42.666;23.344;2023-07-22T18:41:53;18.10;;;11.32;;
3177;SDS011;38141;42.666;23.344;2023-07-22T18:45:20;20.48;;;7.72;;
3177;SDS011;38141;42.666;23.344;2023-07-22T18:48:46;13.75;;;5.72;;
3177;SDS011;38141;42.666;23.344;2023-07-22T18:52:11;14.82;;;6.47;;
3177;SDS011;38141;42.666;23.344;2023-07-22T18:55:37;20.17;;;11.32;;
3177;SDS011;38141;42.666;23.344;2023-07-22T18:59:02;19.00;;;11.77;;
3177;SDS011;38141;42.666;23.344;2023-07-22T19:02:29;29.27;;;15.02;;
3177;SDS011;38141;42.666;23.344;2023-07-22T19:05:54;23.95;;;13.32;;
3177;SDS011;38141;42.666;23.344;2023-07-22T19:09:21;13.82;;;7.35;;
3177;SDS011;38141;42.666;23.344;2023-07-22T19:12:46;18.48;;;7.20;;
3177;SDS011;38141;42.666;23.344;2023-07-22T19:16:12;14.52;;;6.65;;
3177;SDS011;38141;42.666;23.344;2023-07-22T19:19:38;12.23;;;5.75;;
3177;SDS011;38141;42.666;23.344;2023-07-22T19:23:03;15.00;;;5.95;;
3177;SDS011;38141;42.666;23.344;2023-07-22T19:26:29;13.23;;;6.07;;
3177;SDS011;38141;42.666;23.344;2023-07-22T19:29:54;9.55;;;7.47;;
3177;SDS011;38141;42.666;23.344;2023-07-22T19:33:20;17.35;;;9.30;;
3177;SDS011;38141;42.666;23.344;2023-07-22T19:36:47;13.40;;;6.97;;
3177;SDS011;38141;42.666;23.344;2023-07-22T19:40:13;16.58;;;6.93;;
3177;SDS011;38141;42.666;23.344;2023-07-22T19:43:39;10.73;;;5.75;;
3177;SDS011;38141;42.666;23.344;2023-07-22T19:47:05;13.00;;;5.80;;
3177;SDS011;38141;42.666;23.344;2023-07-22T19:50:30;11.25;;;6.10;;
3177;SDS011;38141;42.666;23.344;2023-07-22T19:53:57;13.05;;;6.40;;
3177;SDS011;38141;42.666;23.344;2023-07-22T19:57:22;8.13;;;6.03;;
3177;SDS011;38141;42.666;23.344;2023-07-22T20:00:48;10.05;;;6.15;;
3177;SDS011;38141;42.666;23.344;2023-07-22T20:04:14;13.48;;;6.05;;
3177;SDS011;38141;42.666;23.344;2023-07-22T20:07:39;12.48;;;6.13;;
3177;SDS011;38141;42.666;23.344;2023-07-22T20:11:06;14.35;;;6.57;;
3177;SDS011;38141;42.666;23.344;2023-07-22T20:14:31;16.52;;;5.82;;
3177;SDS011;38141;42.666;23.344;2023-07-22T20:17:58;12.02;;;5.50;;
3177;SDS011;38141;42.666;23.344;2023-07-22T20:21:24;10.43;;;5.78;;
3177;SDS011;38141;42.666;23.344;2023-07-22T20:24:49;15.05;;;6.45;;
3177;SDS011;38141;42.666;23.344;2023-07-22T20:28:16;14.23;;;6.18;;
3177;SDS011;38141;42.666;23.344;2023-07-22T20:31:41;11.65;;;6.03;;